sensor_id;sensor_type;location;lat;lon;timestamp;P1;durP1;ratioP1;P2;durP2;ratioP2
1567;SDS011;777;47.156;8.326;2022-09-16T00:00:21;10.00;;;9.10;;
1567;SDS011;777;47.156;8.326;2022-09-16T00:02:50;8.70;;;7.80;;
1567;SDS011;777;47.156;8.326;2022-09-16T00:05:19;8.77;;;7.47;;
1567;SDS011;777;47.156;8.326;2022-09-16T00:07:46;9.63;;;8.23;;
1567;SDS011;777;47.156;8.326;2022-09-16T00:10:13;7.93;;;6.60;;
1567;SDS011;777;47.156;8.326;2022-09-16T00:12:41;8.63;;;7.78;;
1567;SDS011;777;47.156;8.326;2022-09-16T00:15:08;10.38;;;9.48;;
1567;SDS011;777;47.156;8.326;2022-09-16T00:17:35;9.57;;;8.55;;
1567;SDS011;777;47.156;8.326;2022-09-16T00:20:03;10.20;;;9.15;;
1567;SDS011;777;47.156;8.326;2022-09-16T00:22:32;10.55;;;9.50;;
1567;SDS011;777;47.156;8.326;2022-09-16T00:25:00;11.95;;;9.85;;
1567;SDS011;777;47.156;8.326;2022-09-16T00:27:27;9.75;;;8.63;;
1567;SDS011;777;47.156;8.326;2022-09-16T00:29:54;12.52;;;10.50;;
1567;SDS011;777;47.156;8.326;2022-09-16T00:32:21;11.38;;;10.23;;
1567;SDS011;777;47.156;8.326;2022-09-16T00:34:48;14.02;;;10.90;;
1567;SDS011;777;47.156;8.326;2022-09-16T00:37:15;11.20;;;10.27;;
1567;SDS011;777;47.156;8.326;2022-09-16T00:39:43;12.73;;;11.48;;
1567;SDS011;777;47.156;8.326;2022-09-16T00:42:13;13.23;;;11.90;;
1567;SDS011;777;47.156;8.326;2022-09-16T00:44:51;12.32;;;11.07;;
1567;SDS011;777;47.156;8.326;2022-09-16T00:47:24;12.65;;;11.40;;
1567;SDS011;777;47.156;8.326;2022-09-16T00:49:57;12.75;;;11.55;;
1567;SDS011;777;47.156;8.326;2022-09-16T00:52:27;12.27;;;11.07;;
1567;SDS011;777;47.156;8.326;2022-09-16T00:54:58;13.00;;;11.48;;
1567;SDS011;777;47.156;8.326;2022-09-16T00:57:31;13.90;;;12.48;;
1567;SDS011;777;47.156;8.326;2022-09-16T00:59:59;15.73;;;13.48;;
1567;SDS011;777;47.156;8.326;2022-09-16T01:02:27;13.93;;;12.15;;
1567;SDS011;777;47.156;8.326;2022-09-16T01:04:55;13.88;;;12.68;;
1567;SDS011;777;47.156;8.326;2022-09-16T01:07:28;14.40;;;12.88;;
1567;SDS011;777;47.156;8.326;2022-09-16T01:09:59;12.80;;;11.38;;
1567;SDS011;777;47.156;8.326;2022-09-16T01:12:27;12.35;;;11.25;;
1567;SDS011;777;47.156;8.326;2022-09-16T01:14:55;12.05;;;10.82;;
1567;SDS011;777;47.156;8.326;2022-09-16T01:17:28;12.18;;;11.05;;
1567;SDS011;777;47.156;8.326;2022-09-16T01:23:31;11.57;;;10.38;;
1567;SDS011;777;47.156;8.326;2022-09-16T01:26:22;11.20;;;10.10;;
1567;SDS011;777;47.156;8.326;2022-09-16T01:29:11;10.60;;;9.60;;
1567;SDS011;777;47.156;8.326;2022-09-16T01:32:02;10.65;;;9.43;;
1567;SDS011;777;47.156;8.326;2022-09-16T01:34:36;9.57;;;8.77;;
1567;SDS011;777;47.156;8.326;2022-09-16T01:37:11;10.98;;;9.70;;
1567;SDS011;777;47.156;8.326;2022-09-16T01:39:46;11.20;;;9.38;;
1567;SDS011;777;47.156;8.326;2022-09-16T01:42:22;10.30;;;9.35;;
1567;SDS011;777;47.156;8.326;2022-09-16T01:44:58;9.45;;;8.55;;
1567;SDS011;777;47.156;8.326;2022-09-16T01:47:32;9.35;;;8.10;;
1567;SDS011;777;47.156;8.326;2022-09-16T01:50:05;9.70;;;8.45;;
1567;SDS011;777;47.156;8.326;2022-09-16T01:52:40;9.23;;;8.43;;
1567;SDS011;777;47.156;8.326;2022-09-16T01:57:43;9.38;;;8.50;;
1567;SDS011;777;47.156;8.326;2022-09-16T02:00:16;9.65;;;8.77;;
1567;SDS011;777;47.156;8.326;2022-09-16T02:02:46;10.75;;;9.73;;
1567;SDS011;777;47.156;8.326;2022-09-16T02:05:17;11.40;;;10.40;;
1567;SDS011;777;47.156;8.326;2022-09-16T02:07:50;12.40;;;11.20;;
1567;SDS011;777;47.156;8.326;2022-09-16T02:10:24;10.55;;;9.45;;
1567;SDS011;777;47.156;8.326;2022-09-16T02:12:55;10.43;;;9.32;;
1567;SDS011;777;47.156;8.326;2022-09-16T02:15:25;9.80;;;8.77;;
1567;SDS011;777;47.156;8.326;2022-09-16T02:17:58;9.20;;;8.40;;
1567;SDS011;777;47.156;8.326;2022-09-16T02:20:28;9.60;;;8.63;;
1567;SDS011;777;47.156;8.326;2022-09-16T02:22:58;10.30;;;8.07;;
1567;SDS011;777;47.156;8.326;2022-09-16T02:25:31;8.90;;;8.10;;
1567;SDS011;777;47.156;8.326;2022-09-16T02:28:01;9.88;;;8.15;;
1567;SDS011;777;47.156;8.326;2022-09-16T02:30:32;9.60;;;8.60;;
1567;SDS011;777;47.156;8.326;2022-09-16T02:33:03;8.23;;;7.47;;
1567;SDS011;777;47.156;8.326;2022-09-16T02:35:33;8.50;;;7.70;;
1567;SDS011;777;47.156;8.326;2022-09-16T02:38:03;10.00;;;7.82;;
1567;SDS011;777;47.156;8.326;2022-09-16T02:40:36;8.20;;;7.50;;
1567;SDS011;777;47.156;8.326;2022-09-16T02:43:10;8.07;;;7.07;;
1567;SDS011;777;47.156;8.326;2022-09-16T02:45:39;7.05;;;6.50;;
1567;SDS011;777;47.156;8.326;2022-09-16T02:48:14;7.78;;;6.95;;
1567;SDS011;777;47.156;8.326;2022-09-16T02:50:51;8.80;;;7.95;;
1567;SDS011;777;47.156;8.326;2022-09-16T02:53:24;8.35;;;7.57;;
1567;SDS011;777;47.156;8.326;2022-09-16T02:56:00;8.05;;;7.25;;
1567;SDS011;777;47.156;8.326;2022-09-16T02:58:31;7.75;;;6.95;;
1567;SDS011;777;47.156;8.326;2022-09-16T03:00:58;8.45;;;7.45;;
1567;SDS011;777;47.156;8.326;2022-09-16T03:03:27;7.63;;;6.93;;
1567;SDS011;777;47.156;8.326;2022-09-16T03:06:15;8.18;;;7.47;;
1567;SDS011;777;47.156;8.326;2022-09-16T03:08:44;8.65;;;7.70;;
1567;SDS011;777;47.156;8.326;2022-09-16T03:11:20;8.30;;;7.60;;
1567;SDS011;777;47.156;8.326;2022-09-16T03:14:19;8.65;;;7.82;;
1567;SDS011;777;47.156;8.326;2022-09-16T03:17:08;8.45;;;7.45;;
1567;SDS011;777;47.156;8.326;2022-09-16T03:19:48;7.35;;;6.55;;
1567;SDS011;777;47.156;8.326;2022-09-16T03:22:26;8.23;;;7.30;;
1567;SDS011;777;47.156;8.326;2022-09-16T03:25:04;7.82;;;7.18;;
1567;SDS011;777;47.156;8.326;2022-09-16T03:27:37;9.43;;;8.48;;
1567;SDS011;777;47.156;8.326;2022-09-16T03:30:11;8.32;;;7.60;;
1567;SDS011;777;47.156;8.326;2022-09-16T03:32:40;9.43;;;8.43;;
1567;SDS011;777;47.156;8.326;2022-09-16T03:35:12;9.77;;;8.85;;
1567;SDS011;777;47.156;8.326;2022-09-16T03:37:44;9.25;;;8.05;;
1567;SDS011;777;47.156;8.326;2022-09-16T03:40:14;10.05;;;9.00;;
1567;SDS011;777;47.156;8.326;2022-09-16T03:42:43;9.18;;;8.38;;
1567;SDS011;777;47.156;8.326;2022-09-16T03:45:12;9.80;;;8.80;;
1567;SDS011;777;47.156;8.326;2022-09-16T03:47:41;9.75;;;8.65;;
1567;SDS011;777;47.156;8.326;2022-09-16T03:50:08;10.00;;;9.00;;
1567;SDS011;777;47.156;8.326;2022-09-16T03:52:38;9.57;;;8.68;;
1567;SDS011;777;47.156;8.326;2022-09-16T03:55:05;10.38;;;9.32;;
1567;SDS011;777;47.156;8.326;2022-09-16T03:57:35;11.05;;;9.25;;
1567;SDS011;777;47.156;8.326;2022-09-16T04:00:02;10.00;;;8.82;;
1567;SDS011;777;47.156;8.326;2022-09-16T04:02:36;9.40;;;8.50;;
1567;SDS011;777;47.156;8.326;2022-09-16T04:05:04;10.32;;;8.18;;
1567;SDS011;777;47.156;8.326;2022-09-16T04:07:33;10.70;;;9.15;;
1567;SDS011;777;47.156;8.326;2022-09-16T04:10:01;10.48;;;9.38;;
1567;SDS011;777;47.156;8.326;2022-09-16T04:12:28;12.57;;;9.95;;
1567;SDS011;777;47.156;8.326;2022-09-16T04:14:55;11.60;;;10.55;;
1567;SDS011;777;47.156;8.326;2022-09-16T04:17:22;12.02;;;10.90;;
1567;SDS011;777;47.156;8.326;2022-09-16T04:19:50;12.20;;;11.07;;
1567;SDS011;777;47.156;8.326;2022-09-16T04:22:17;11.43;;;10.20;;
1567;SDS011;777;47.156;8.326;2022-09-16T04:24:46;11.85;;;10.68;;
1567;SDS011;777;47.156;8.326;2022-09-16T04:27:13;11.60;;;10.43;;
1567;SDS011;777;47.156;8.326;2022-09-16T04:29:40;12.00;;;11.00;;
1567;SDS011;777;47.156;8.326;2022-09-16T04:32:07;12.43;;;11.23;;
1567;SDS011;777;47.156;8.326;2022-09-16T04:34:34;12.63;;;11.52;;
1567;SDS011;777;47.156;8.326;2022-09-16T04:37:01;12.25;;;11.25;;
1567;SDS011;777;47.156;8.326;2022-09-16T04:39:28;11.40;;;10.00;;
1567;SDS011;777;47.156;8.326;2022-09-16T04:41:57;11.80;;;10.68;;
1567;SDS011;777;47.156;8.326;2022-09-16T04:44:25;11.55;;;10.50;;
1567;SDS011;777;47.156;8.326;2022-09-16T04:47:06;11.00;;;10.00;;
1567;SDS011;777;47.156;8.326;2022-09-16T04:49:38;12.25;;;10.93;;
1567;SDS011;777;47.156;8.326;2022-09-16T04:52:05;11.25;;;10.13;;
1567;SDS011;777;47.156;8.326;2022-09-16T04:54:32;12.60;;;11.50;;
1567;SDS011;777;47.156;8.326;2022-09-16T04:57:01;13.15;;;12.05;;
1567;SDS011;777;47.156;8.326;2022-09-16T04:59:28;12.45;;;11.15;;
1567;SDS011;777;47.156;8.326;2022-09-16T05:01:55;13.18;;;11.82;;
1567;SDS011;777;47.156;8.326;2022-09-16T05:04:22;13.55;;;12.20;;
1567;SDS011;777;47.156;8.326;2022-09-16T05:07:08;13.05;;;11.75;;
1567;SDS011;777;47.156;8.326;2022-09-16T05:09:35;13.77;;;12.48;;
1567;SDS011;777;47.156;8.326;2022-09-16T05:12:03;11.55;;;10.55;;
1567;SDS011;777;47.156;8.326;2022-09-16T05:14:49;12.25;;;10.95;;
1567;SDS011;777;47.156;8.326;2022-09-16T05:17:16;12.20;;;11.00;;
1567;SDS011;777;47.156;8.326;2022-09-16T05:19:43;12.43;;;11.10;;
1567;SDS011;777;47.156;8.326;2022-09-16T05:22:29;12.80;;;11.60;;
1567;SDS011;777;47.156;8.326;2022-09-16T05:24:56;11.77;;;10.30;;
1567;SDS011;777;47.156;8.326;2022-09-16T05:27:24;10.35;;;9.40;;
1567;SDS011;777;47.156;8.326;2022-09-16T05:29:55;10.10;;;9.20;;
1567;SDS011;777;47.156;8.326;2022-09-16T05:32:22;10.20;;;9.23;;
1567;SDS011;777;47.156;8.326;2022-09-16T05:34:49;10.52;;;9.52;;
1567;SDS011;777;47.156;8.326;2022-09-16T05:37:17;10.32;;;9.32;;
1567;SDS011;777;47.156;8.326;2022-09-16T05:39:44;10.30;;;9.05;;
1567;SDS011;777;47.156;8.326;2022-09-16T05:42:11;11.10;;;10.10;;
1567;SDS011;777;47.156;8.326;2022-09-16T05:44:39;9.90;;;9.10;;
1567;SDS011;777;47.156;8.326;2022-09-16T05:47:06;11.60;;;9.27;;
1567;SDS011;777;47.156;8.326;2022-09-16T05:49:33;10.70;;;9.60;;
1567;SDS011;777;47.156;8.326;2022-09-16T05:52:01;9.70;;;8.68;;
1567;SDS011;777;47.156;8.326;2022-09-16T05:54:28;9.27;;;8.35;;
1567;SDS011;777;47.156;8.326;2022-09-16T05:56:55;7.93;;;7.07;;
1567;SDS011;777;47.156;8.326;2022-09-16T05:59:22;7.57;;;6.70;;
1567;SDS011;777;47.156;8.326;2022-09-16T06:01:51;7.25;;;6.43;;
1567;SDS011;777;47.156;8.326;2022-09-16T06:04:18;6.55;;;5.93;;
1567;SDS011;777;47.156;8.326;2022-09-16T06:06:45;7.63;;;6.85;;
1567;SDS011;777;47.156;8.326;2022-09-16T06:09:13;6.75;;;6.05;;
1567;SDS011;777;47.156;8.326;2022-09-16T06:11:42;7.85;;;5.93;;
1567;SDS011;777;47.156;8.326;2022-09-16T06:14:10;6.28;;;5.68;;
1567;SDS011;777;47.156;8.326;2022-09-16T06:16:39;5.72;;;4.57;;
1567;SDS011;777;47.156;8.326;2022-09-16T06:19:09;5.05;;;3.72;;
1567;SDS011;777;47.156;8.326;2022-09-16T06:21:39;3.63;;;3.20;;
1567;SDS011;777;47.156;8.326;2022-09-16T06:24:08;2.78;;;2.55;;
1567;SDS011;777;47.156;8.326;2022-09-16T06:26:36;2.42;;;2.22;;
1567;SDS011;777;47.156;8.326;2022-09-16T06:29:04;3.97;;;2.42;;
1567;SDS011;777;47.156;8.326;2022-09-16T06:31:32;3.70;;;2.20;;
1567;SDS011;777;47.156;8.326;2022-09-16T06:34:00;3.38;;;1.67;;
1567;SDS011;777;47.156;8.326;2022-09-16T06:36:29;1.70;;;1.58;;
1567;SDS011;777;47.156;8.326;2022-09-16T06:38:58;2.25;;;1.40;;
1567;SDS011;777;47.156;8.326;2022-09-16T06:41:25;1.95;;;1.60;;
1567;SDS011;777;47.156;8.326;2022-09-16T06:43:52;3.50;;;1.73;;
1567;SDS011;777;47.156;8.326;2022-09-16T06:46:22;3.40;;;1.75;;
1567;SDS011;777;47.156;8.326;2022-09-16T06:48:51;2.95;;;1.70;;
1567;SDS011;777;47.156;8.326;2022-09-16T06:51:21;2.53;;;1.95;;
1567;SDS011;777;47.156;8.326;2022-09-16T06:53:51;1.90;;;1.73;;
1567;SDS011;777;47.156;8.326;2022-09-16T06:56:20;2.75;;;2.00;;
1567;SDS011;777;47.156;8.326;2022-09-16T06:58:50;4.28;;;2.30;;
1567;SDS011;777;47.156;8.326;2022-09-16T07:01:20;3.28;;;2.08;;
1567;SDS011;777;47.156;8.326;2022-09-16T07:03:49;3.67;;;2.90;;
1567;SDS011;777;47.156;8.326;2022-09-16T07:06:19;3.20;;;2.38;;
1567;SDS011;777;47.156;8.326;2022-09-16T07:08:47;2.92;;;2.63;;
1567;SDS011;777;47.156;8.326;2022-09-16T07:11:16;3.65;;;2.80;;
1567;SDS011;777;47.156;8.326;2022-09-16T07:13:44;5.03;;;3.05;;
1567;SDS011;777;47.156;8.326;2022-09-16T07:16:13;5.50;;;3.63;;
1567;SDS011;777;47.156;8.326;2022-09-16T07:18:42;7.63;;;4.22;;
1567;SDS011;777;47.156;8.326;2022-09-16T07:21:10;8.18;;;4.30;;
1567;SDS011;777;47.156;8.326;2022-09-16T07:23:38;6.20;;;3.92;;
1567;SDS011;777;47.156;8.326;2022-09-16T07:26:07;5.60;;;4.15;;
1567;SDS011;777;47.156;8.326;2022-09-16T07:28:37;8.13;;;3.80;;
1567;SDS011;777;47.156;8.326;2022-09-16T07:31:25;3.67;;;3.22;;
1567;SDS011;777;47.156;8.326;2022-09-16T07:33:53;5.10;;;3.40;;
1567;SDS011;777;47.156;8.326;2022-09-16T07:36:23;4.32;;;3.10;;
1567;SDS011;777;47.156;8.326;2022-09-16T07:38:51;5.10;;;3.00;;
1567;SDS011;777;47.156;8.326;2022-09-16T07:41:21;4.78;;;3.90;;
1567;SDS011;777;47.156;8.326;2022-09-16T07:43:51;3.60;;;3.30;;
1567;SDS011;777;47.156;8.326;2022-09-16T07:46:19;4.60;;;3.35;;
1567;SDS011;777;47.156;8.326;2022-09-16T07:48:47;4.43;;;3.35;;
1567;SDS011;777;47.156;8.326;2022-09-16T07:51:15;4.57;;;3.63;;
1567;SDS011;777;47.156;8.326;2022-09-16T07:53:43;4.40;;;3.42;;
1567;SDS011;777;47.156;8.326;2022-09-16T07:56:33;8.13;;;3.55;;
1567;SDS011;777;47.156;8.326;2022-09-16T07:59:04;3.85;;;3.22;;
1567;SDS011;777;47.156;8.326;2022-09-16T08:01:32;4.90;;;3.08;;
1567;SDS011;777;47.156;8.326;2022-09-16T08:04:00;5.05;;;3.70;;
1567;SDS011;777;47.156;8.326;2022-09-16T08:06:29;4.90;;;3.33;;
1567;SDS011;777;47.156;8.326;2022-09-16T08:08:58;4.88;;;2.70;;
1567;SDS011;777;47.156;8.326;2022-09-16T08:11:27;3.63;;;3.10;;
1567;SDS011;777;47.156;8.326;2022-09-16T08:13:54;3.72;;;2.72;;
1567;SDS011;777;47.156;8.326;2022-09-16T08:16:25;4.22;;;3.05;;
1567;SDS011;777;47.156;8.326;2022-09-16T08:18:53;4.03;;;3.00;;
1567;SDS011;777;47.156;8.326;2022-09-16T08:21:22;4.32;;;2.83;;
1567;SDS011;777;47.156;8.326;2022-09-16T08:23:50;3.35;;;3.05;;
1567;SDS011;777;47.156;8.326;2022-09-16T08:26:18;3.65;;;2.90;;
1567;SDS011;777;47.156;8.326;2022-09-16T08:28:51;3.58;;;2.63;;
1567;SDS011;777;47.156;8.326;2022-09-16T08:31:19;3.30;;;3.00;;
1567;SDS011;777;47.156;8.326;2022-09-16T08:33:47;3.35;;;2.65;;
1567;SDS011;777;47.156;8.326;2022-09-16T08:36:16;3.58;;;2.20;;
1567;SDS011;777;47.156;8.326;2022-09-16T08:38:45;5.10;;;2.90;;
1567;SDS011;777;47.156;8.326;2022-09-16T08:44:26;4.40;;;2.55;;
1567;SDS011;777;47.156;8.326;2022-09-16T08:47:00;2.83;;;2.15;;
1567;SDS011;777;47.156;8.326;2022-09-16T08:49:33;4.40;;;2.17;;
1567;SDS011;777;47.156;8.326;2022-09-16T08:52:07;2.58;;;2.35;;
1567;SDS011;777;47.156;8.326;2022-09-16T08:54:38;3.27;;;2.67;;
1567;SDS011;777;47.156;8.326;2022-09-16T08:57:10;2.97;;;2.47;;
1567;SDS011;777;47.156;8.326;2022-09-16T08:59:43;3.08;;;2.50;;
1567;SDS011;777;47.156;8.326;2022-09-16T09:02:26;3.88;;;2.40;;
1567;SDS011;777;47.156;8.326;2022-09-16T09:05:01;3.03;;;2.17;;
1567;SDS011;777;47.156;8.326;2022-09-16T09:07:34;5.47;;;2.42;;
1567;SDS011;777;47.156;8.326;2022-09-16T09:10:12;5.22;;;2.33;;
1567;SDS011;777;47.156;8.326;2022-09-16T09:12:51;4.70;;;2.10;;
1567;SDS011;777;47.156;8.326;2022-09-16T09:15:25;3.60;;;2.33;;
1567;SDS011;777;47.156;8.326;2022-09-16T09:18:02;4.20;;;2.78;;
1567;SDS011;777;47.156;8.326;2022-09-16T09:20:42;3.58;;;2.50;;
1567;SDS011;777;47.156;8.326;2022-09-16T09:23:21;4.60;;;2.60;;
1567;SDS011;777;47.156;8.326;2022-09-16T09:26:24;4.53;;;2.17;;
1567;SDS011;777;47.156;8.326;2022-09-16T09:29:03;2.60;;;2.00;;
1567;SDS011;777;47.156;8.326;2022-09-16T09:32:04;4.37;;;3.03;;
1567;SDS011;777;47.156;8.326;2022-09-16T09:34:45;3.47;;;1.80;;
1567;SDS011;777;47.156;8.326;2022-09-16T09:37:28;2.92;;;2.08;;
1567;SDS011;777;47.156;8.326;2022-09-16T09:40:08;4.00;;;2.17;;
1567;SDS011;777;47.156;8.326;2022-09-16T09:42:40;4.07;;;2.40;;
1567;SDS011;777;47.156;8.326;2022-09-16T09:45:15;4.53;;;2.53;;
1567;SDS011;777;47.156;8.326;2022-09-16T09:47:45;3.05;;;2.08;;
1567;SDS011;777;47.156;8.326;2022-09-16T09:50:18;3.97;;;2.40;;
1567;SDS011;777;47.156;8.326;2022-09-16T09:52:51;4.43;;;2.22;;
1567;SDS011;777;47.156;8.326;2022-09-16T09:55:26;5.78;;;2.15;;
1567;SDS011;777;47.156;8.326;2022-09-16T09:58:00;3.47;;;2.35;;
1567;SDS011;777;47.156;8.326;2022-09-16T10:00:34;3.20;;;2.25;;
1567;SDS011;777;47.156;8.326;2022-09-16T10:03:03;4.07;;;2.20;;
1567;SDS011;777;47.156;8.326;2022-09-16T10:05:50;4.18;;;2.28;;
1567;SDS011;777;47.156;8.326;2022-09-16T10:08:22;4.63;;;3.00;;
1567;SDS011;777;47.156;8.326;2022-09-16T10:10:53;5.38;;;2.90;;
1567;SDS011;777;47.156;8.326;2022-09-16T10:13:22;5.85;;;2.70;;
1567;SDS011;777;47.156;8.326;2022-09-16T10:15:51;3.50;;;2.53;;
1567;SDS011;777;47.156;8.326;2022-09-16T10:18:22;3.33;;;2.50;;
1567;SDS011;777;47.156;8.326;2022-09-16T10:20:58;4.45;;;3.03;;
1567;SDS011;777;47.156;8.326;2022-09-16T10:23:30;3.83;;;2.70;;
1567;SDS011;777;47.156;8.326;2022-09-16T10:26:04;3.60;;;2.30;;
1567;SDS011;777;47.156;8.326;2022-09-16T10:29:02;4.68;;;2.72;;
1567;SDS011;777;47.156;8.326;2022-09-16T10:31:40;4.13;;;2.53;;
1567;SDS011;777;47.156;8.326;2022-09-16T10:34:12;5.25;;;3.13;;
1567;SDS011;777;47.156;8.326;2022-09-16T10:36:45;4.00;;;3.00;;
1567;SDS011;777;47.156;8.326;2022-09-16T10:39:25;2.45;;;1.90;;
1567;SDS011;777;47.156;8.326;2022-09-16T10:41:54;2.10;;;1.63;;
1567;SDS011;777;47.156;8.326;2022-09-16T10:44:22;2.65;;;2.03;;
1567;SDS011;777;47.156;8.326;2022-09-16T10:46:52;2.30;;;2.00;;
1567;SDS011;777;47.156;8.326;2022-09-16T10:49:23;3.35;;;2.20;;
1567;SDS011;777;47.156;8.326;2022-09-16T10:51:53;3.22;;;2.30;;
1567;SDS011;777;47.156;8.326;2022-09-16T10:54:22;2.80;;;1.90;;
1567;SDS011;777;47.156;8.326;2022-09-16T10:56:52;4.07;;;2.70;;
1567;SDS011;777;47.156;8.326;2022-09-16T10:59:20;3.20;;;2.63;;
1567;SDS011;777;47.156;8.326;2022-09-16T11:02:07;3.20;;;2.80;;
1567;SDS011;777;47.156;8.326;2022-09-16T11:04:52;4.63;;;3.00;;
1567;SDS011;777;47.156;8.326;2022-09-16T11:07:33;3.80;;;3.40;;
1567;SDS011;777;47.156;8.326;2022-09-16T11:10:12;4.25;;;3.42;;
1567;SDS011;777;47.156;8.326;2022-09-16T11:13:01;5.35;;;3.13;;
1567;SDS011;777;47.156;8.326;2022-09-16T11:15:48;3.95;;;3.30;;
1567;SDS011;777;47.156;8.326;2022-09-16T11:18:29;4.82;;;3.50;;
1567;SDS011;777;47.156;8.326;2022-09-16T11:21:14;4.15;;;3.63;;
1567;SDS011;777;47.156;8.326;2022-09-16T11:26:57;5.55;;;3.20;;
1567;SDS011;777;47.156;8.326;2022-09-16T11:29:45;4.15;;;3.30;;
1567;SDS011;777;47.156;8.326;2022-09-16T11:32:26;3.47;;;2.70;;
1567;SDS011;777;47.156;8.326;2022-09-16T11:37:53;4.57;;;2.85;;
1567;SDS011;777;47.156;8.326;2022-09-16T11:43:00;4.00;;;3.13;;
1567;SDS011;777;47.156;8.326;2022-09-16T11:46:00;4.93;;;3.58;;
1567;SDS011;777;47.156;8.326;2022-09-16T11:48:37;4.10;;;3.40;;
1567;SDS011;777;47.156;8.326;2022-09-16T11:51:23;4.00;;;3.60;;
1567;SDS011;777;47.156;8.326;2022-09-16T11:54:02;3.88;;;3.20;;
1567;SDS011;777;47.156;8.326;2022-09-16T11:56:45;4.68;;;3.63;;
1567;SDS011;777;47.156;8.326;2022-09-16T11:59:19;4.18;;;3.20;;
1567;SDS011;777;47.156;8.326;2022-09-16T12:01:52;5.55;;;3.20;;
1567;SDS011;777;47.156;8.326;2022-09-16T12:04:27;4.70;;;3.00;;
1567;SDS011;777;47.156;8.326;2022-09-16T12:07:00;4.38;;;3.13;;
1567;SDS011;777;47.156;8.326;2022-09-16T12:09:32;3.97;;;3.15;;
1567;SDS011;777;47.156;8.326;2022-09-16T12:12:08;3.60;;;3.00;;
1567;SDS011;777;47.156;8.326;2022-09-16T12:14:40;3.13;;;2.67;;
1567;SDS011;777;47.156;8.326;2022-09-16T12:17:12;3.83;;;2.90;;
1567;SDS011;777;47.156;8.326;2022-09-16T12:19:43;3.53;;;3.05;;
1567;SDS011;777;47.156;8.326;2022-09-16T12:22:34;5.55;;;3.42;;
1567;SDS011;777;47.156;8.326;2022-09-16T12:25:06;4.67;;;3.53;;
1567;SDS011;777;47.156;8.326;2022-09-16T12:27:39;5.28;;;3.95;;
1567;SDS011;777;47.156;8.326;2022-09-16T12:30:14;5.68;;;3.90;;
1567;SDS011;777;47.156;8.326;2022-09-16T12:33:02;6.22;;;3.53;;
1567;SDS011;777;47.156;8.326;2022-09-16T12:35:32;4.95;;;3.47;;
1567;SDS011;777;47.156;8.326;2022-09-16T12:38:03;4.25;;;3.17;;
1567;SDS011;777;47.156;8.326;2022-09-16T12:40:33;3.85;;;3.17;;
1567;SDS011;777;47.156;8.326;2022-09-16T12:43:17;5.30;;;3.92;;
1567;SDS011;777;47.156;8.326;2022-09-16T12:49:10;4.03;;;3.42;;
1567;SDS011;777;47.156;8.326;2022-09-16T12:51:57;5.75;;;3.47;;
1567;SDS011;777;47.156;8.326;2022-09-16T12:55:04;4.38;;;3.55;;
1567;SDS011;777;47.156;8.326;2022-09-16T12:57:53;7.68;;;3.55;;
1567;SDS011;777;47.156;8.326;2022-09-16T13:00:59;6.15;;;3.25;;
1567;SDS011;777;47.156;8.326;2022-09-16T13:03:37;4.47;;;3.40;;
1567;SDS011;777;47.156;8.326;2022-09-16T13:06:13;4.03;;;3.28;;
1567;SDS011;777;47.156;8.326;2022-09-16T13:08:46;4.07;;;2.92;;
1567;SDS011;777;47.156;8.326;2022-09-16T13:11:16;5.32;;;3.30;;
1567;SDS011;777;47.156;8.326;2022-09-16T13:13:47;3.78;;;3.03;;
1567;SDS011;777;47.156;8.326;2022-09-16T13:16:25;3.63;;;2.90;;
1567;SDS011;777;47.156;8.326;2022-09-16T13:19:12;3.50;;;3.00;;
1567;SDS011;777;47.156;8.326;2022-09-16T13:21:56;3.33;;;3.03;;
1567;SDS011;777;47.156;8.326;2022-09-16T13:24:28;5.32;;;3.38;;
1567;SDS011;777;47.156;8.326;2022-09-16T13:27:14;3.88;;;3.47;;
1567;SDS011;777;47.156;8.326;2022-09-16T13:29:50;3.78;;;3.33;;
1567;SDS011;777;47.156;8.326;2022-09-16T13:32:24;5.63;;;3.58;;
1567;SDS011;777;47.156;8.326;2022-09-16T13:35:01;5.43;;;4.05;;
1567;SDS011;777;47.156;8.326;2022-09-16T13:37:29;5.13;;;3.78;;
1567;SDS011;777;47.156;8.326;2022-09-16T13:40:07;6.35;;;3.75;;
1567;SDS011;777;47.156;8.326;2022-09-16T13:42:41;4.35;;;3.40;;
1567;SDS011;777;47.156;8.326;2022-09-16T13:47:57;5.25;;;3.25;;
1567;SDS011;777;47.156;8.326;2022-09-16T13:50:29;5.18;;;3.28;;
1567;SDS011;777;47.156;8.326;2022-09-16T13:52:57;6.18;;;3.80;;
1567;SDS011;777;47.156;8.326;2022-09-16T13:55:35;3.97;;;2.83;;
1567;SDS011;777;47.156;8.326;2022-09-16T13:58:05;5.55;;;3.00;;
1567;SDS011;777;47.156;8.326;2022-09-16T14:00:43;2.40;;;2.20;;
1567;SDS011;777;47.156;8.326;2022-09-16T14:03:39;5.07;;;2.90;;
1567;SDS011;777;47.156;8.326;2022-09-16T14:06:17;3.40;;;3.10;;
1567;SDS011;777;47.156;8.326;2022-09-16T14:09:14;3.30;;;2.70;;
1567;SDS011;777;47.156;8.326;2022-09-16T14:12:10;5.10;;;2.80;;
1567;SDS011;777;47.156;8.326;2022-09-16T14:14:42;3.78;;;2.50;;
1567;SDS011;777;47.156;8.326;2022-09-16T14:17:13;3.50;;;2.60;;
1567;SDS011;777;47.156;8.326;2022-09-16T14:22:15;3.53;;;2.78;;
1567;SDS011;777;47.156;8.326;2022-09-16T14:24:46;3.92;;;3.17;;
1567;SDS011;777;47.156;8.326;2022-09-16T14:27:20;3.25;;;2.88;;
1567;SDS011;777;47.156;8.326;2022-09-16T14:29:53;3.63;;;2.40;;
1567;SDS011;777;47.156;8.326;2022-09-16T14:32:22;6.03;;;2.30;;
1567;SDS011;777;47.156;8.326;2022-09-16T14:34:51;3.47;;;2.38;;
1567;SDS011;777;47.156;8.326;2022-09-16T14:37:21;3.80;;;2.45;;
1567;SDS011;777;47.156;8.326;2022-09-16T14:39:51;2.95;;;2.10;;
1567;SDS011;777;47.156;8.326;2022-09-16T14:42:22;2.58;;;1.95;;
1567;SDS011;777;47.156;8.326;2022-09-16T14:44:50;3.00;;;2.25;;
1567;SDS011;777;47.156;8.326;2022-09-16T14:47:21;2.03;;;1.85;;
1567;SDS011;777;47.156;8.326;2022-09-16T14:49:54;3.58;;;2.25;;
1567;SDS011;777;47.156;8.326;2022-09-16T14:54:56;4.72;;;2.38;;
1567;SDS011;777;47.156;8.326;2022-09-16T14:57:24;2.95;;;2.22;;
1567;SDS011;777;47.156;8.326;2022-09-16T14:59:55;4.07;;;2.85;;
1567;SDS011;777;47.156;8.326;2022-09-16T15:02:25;6.38;;;2.30;;
1567;SDS011;777;47.156;8.326;2022-09-16T15:04:55;2.97;;;2.30;;
1567;SDS011;777;47.156;8.326;2022-09-16T15:07:26;4.57;;;2.25;;
1567;SDS011;777;47.156;8.326;2022-09-16T15:10:17;4.82;;;2.40;;
1567;SDS011;777;47.156;8.326;2022-09-16T15:12:48;7.97;;;2.30;;
1567;SDS011;777;47.156;8.326;2022-09-16T15:15:18;3.30;;;2.35;;
1567;SDS011;777;47.156;8.326;2022-09-16T15:17:50;3.22;;;2.13;;
1567;SDS011;777;47.156;8.326;2022-09-16T15:20:20;4.28;;;2.10;;
1567;SDS011;777;47.156;8.326;2022-09-16T15:22:51;3.75;;;2.70;;
1567;SDS011;777;47.156;8.326;2022-09-16T15:25:19;2.97;;;2.30;;
1567;SDS011;777;47.156;8.326;2022-09-16T15:28:14;5.03;;;2.30;;
1567;SDS011;777;47.156;8.326;2022-09-16T15:30:43;4.00;;;2.60;;
1567;SDS011;777;47.156;8.326;2022-09-16T15:33:22;2.83;;;2.50;;
1567;SDS011;777;47.156;8.326;2022-09-16T15:35:52;3.90;;;2.15;;
1567;SDS011;777;47.156;8.326;2022-09-16T15:38:21;5.13;;;2.42;;
1567;SDS011;777;47.156;8.326;2022-09-16T15:40:58;3.28;;;2.40;;
1567;SDS011;777;47.156;8.326;2022-09-16T15:43:27;3.47;;;2.50;;
1567;SDS011;777;47.156;8.326;2022-09-16T15:45:56;3.55;;;2.20;;
1567;SDS011;777;47.156;8.326;2022-09-16T15:48:26;3.35;;;2.42;;
1567;SDS011;777;47.156;8.326;2022-09-16T15:50:57;4.78;;;2.50;;
1567;SDS011;777;47.156;8.326;2022-09-16T15:53:35;4.05;;;2.63;;
1567;SDS011;777;47.156;8.326;2022-09-16T15:56:08;3.78;;;2.38;;
1567;SDS011;777;47.156;8.326;2022-09-16T15:58:47;4.18;;;2.40;;
1567;SDS011;777;47.156;8.326;2022-09-16T16:01:18;2.97;;;2.42;;
1567;SDS011;777;47.156;8.326;2022-09-16T16:03:59;3.58;;;2.17;;
1567;SDS011;777;47.156;8.326;2022-09-16T16:06:46;3.40;;;2.15;;
1567;SDS011;777;47.156;8.326;2022-09-16T16:12:10;3.88;;;2.10;;
1567;SDS011;777;47.156;8.326;2022-09-16T16:14:40;2.80;;;2.35;;
1567;SDS011;777;47.156;8.326;2022-09-16T16:17:08;3.35;;;2.33;;
1567;SDS011;777;47.156;8.326;2022-09-16T16:19:38;4.00;;;2.10;;
1567;SDS011;777;47.156;8.326;2022-09-16T16:22:06;5.18;;;2.63;;
1567;SDS011;777;47.156;8.326;2022-09-16T16:24:33;3.38;;;2.10;;
1567;SDS011;777;47.156;8.326;2022-09-16T16:27:02;5.28;;;2.47;;
1567;SDS011;777;47.156;8.326;2022-09-16T16:29:30;3.42;;;2.28;;
1567;SDS011;777;47.156;8.326;2022-09-16T16:32:01;3.72;;;2.45;;